Time;durP1;ratioP1;P1;durP2;ratioP2;P2;SDS_P1;SDS_P2;PMS_P1;PMS_P2;Temp;Humidity;BMP_temperature;BMP_pressure;BME280_temperature;BME280_humidity;BME280_pressure;Samples;Min_cycle;Max_cycle;Signal;HPM_P1;HPM_P2
2023/03/09 00:01:37;;;;;;;10.40;9.40;;;1.10;90.40;;;;;;5029670;28;20471;-52
2023/03/09 00:04:04;;;;;;;12.00;10.17;;;1.10;91.80;;;;;;5029038;28;20545;-52
2023/03/09 00:06:31;;;;;;;11.20;9.97;;;1.10;92.60;;;;;;5041495;28;20463;-52
2023/03/09 00:08:58;;;;;;;9.53;8.73;;;1.10;94.90;;;;;;5030490;28;20563;-51
2023/03/09 00:11:25;;;;;;;13.20;9.60;;;1.10;95.70;;;;;;5028395;28;20502;-53
2023/03/09 00:13:53;;;;;;;11.10;9.90;;;1.10;96.40;;;;;;5041118;28;20454;-52
2023/03/09 00:16:22;;;;;;;11.83;10.60;;;1.10;97.70;;;;;;5034567;28;20487;-52
2023/03/09 00:18:51;;;;;;;11.30;10.30;;;1.10;97.00;;;;;;5045447;28;20521;-52
2023/03/09 00:21:34;;;;;;;11.73;10.50;;;1.00;98.00;;;;;;5034846;28;20474;-52
2023/03/09 00:24:01;;;;;;;12.50;10.93;;;1.00;97.80;;;;;;5034249;28;20447;-52
2023/03/09 00:26:27;;;;;;;12.17;10.33;;;1.10;96.70;;;;;;5034594;28;20556;-51
2023/03/09 00:28:55;;;;;;;11.53;10.50;;;1.10;97.50;;;;;;5049941;28;20840;-52
2023/03/09 00:31:21;;;;;;;11.77;10.57;;;1.10;98.60;;;;;;5044299;28;20470;-52
2023/03/09 00:33:49;;;;;;;12.90;11.10;;;1.10;98.80;;;;;;5033996;28;20447;-52
2023/03/09 00:36:16;;;;;;;12.67;11.47;;;1.10;99.90;;;;;;5033160;28;20521;-52
2023/03/09 00:38:43;;;;;;;17.33;12.97;;;1.10;99.60;;;;;;5032724;28;20451;-52
2023/03/09 00:41:10;;;;;;;11.80;10.47;;;1.10;99.50;;;;;;5050483;28;20442;-52
2023/03/09 00:43:36;;;;;;;13.90;10.87;;;1.10;99.90;;;;;;5038703;28;20462;-52
2023/03/09 00:46:05;;;;;;;13.63;12.07;;;1.10;99.90;;;;;;5035817;28;20487;-51
2023/03/09 00:48:31;;;;;;;12.07;10.77;;;1.10;99.90;;;;;;5033801;28;20447;-53
2023/03/09 00:50:58;;;;;;;13.07;11.70;;;1.10;99.90;;;;;;5043087;28;20565;-52
2023/03/09 00:53:24;;;;;;;13.10;11.80;;;1.10;99.90;;;;;;5035560;28;20498;-52
2023/03/09 00:55:51;;;;;;;17.60;12.77;;;1.10;99.90;;;;;;5037046;28;20849;-52
2023/03/09 00:58:17;;;;;;;15.40;10.93;;;1.10;99.90;;;;;;5053969;28;20952;-56
2023/03/09 01:00:44;;;;;;;15.53;13.07;;;1.10;99.90;;;;;;5041090;28;20976;-53
2023/03/09 01:03:12;;;;;;;15.50;13.23;;;1.10;99.90;;;;;;5036856;28;20877;-52
2023/03/09 01:05:38;;;;;;;13.70;12.27;;;1.10;99.90;;;;;;5033785;28;20470;-52
2023/03/09 01:08:05;;;;;;;15.37;13.77;;;1.10;99.90;;;;;;5034076;28;20472;-52
2023/03/09 01:10:32;;;;;;;17.70;14.90;;;1.10;99.90;;;;;;5041347;28;20511;-52
2023/03/09 01:12:58;;;;;;;15.97;14.27;;;1.00;99.90;;;;;;5032844;28;20520;-52
2023/03/09 01:15:25;;;;;;;15.97;13.53;;;1.00;99.90;;;;;;5033172;28;20475;-53
2023/03/09 01:17:51;;;;;;;17.77;14.50;;;1.00;99.90;;;;;;5025090;28;20492;-52
2023/03/09 01:20:19;;;;;;;17.70;14.10;;;0.90;99.90;;;;;;5040835;28;20463;-52
2023/03/09 01:22:46;;;;;;;15.70;13.90;;;1.00;99.90;;;;;;5036377;28;20459;-52
2023/03/09 01:25:13;;;;;;;16.90;14.10;;;1.00;99.90;;;;;;5041965;28;20495;-53
2023/03/09 01:27:39;;;;;;;14.97;13.03;;;1.00;99.90;;;;;;5027311;28;20475;-53
2023/03/09 01:30:07;;;;;;;15.60;14.00;;;0.90;99.90;;;;;;5029432;28;20597;-52
2023/03/09 01:32:34;;;;;;;17.17;14.73;;;1.00;99.90;;;;;;5031465;28;20499;-52
2023/03/09 01:35:01;;;;;;;15.10;13.50;;;0.90;99.90;;;;;;5033685;28;20475;-52
2023/03/09 01:37:29;;;;;;;15.33;13.83;;;0.90;99.90;;;;;;5038378;28;20988;-52
2023/03/09 01:39:56;;;;;;;16.57;13.00;;;1.00;99.90;;;;;;5029277;28;20521;-52
2023/03/09 01:42:22;;;;;;;15.80;13.43;;;1.00;99.90;;;;;;5031418;28;20464;-52
2023/03/09 01:45:07;;;;;;;16.17;13.73;;;1.00;99.90;;;;;;5039284;28;20540;-52
2023/03/09 01:47:34;;;;;;;16.37;14.00;;;0.90;99.90;;;;;;5042288;28;20994;-52
2023/03/09 01:50:02;;;;;;;16.03;14.33;;;0.90;99.90;;;;;;5039171;28;20906;-52
2023/03/09 01:52:34;;;;;;;15.40;13.67;;;0.90;99.90;;;;;;5037623;28;20470;-51
2023/03/09 01:55:04;;;;;;;17.67;13.80;;;0.90;99.90;;;;;;5032830;28;20448;-52
2023/03/09 01:57:33;;;;;;;15.03;13.37;;;0.90;99.90;;;;;;5032854;28;20521;-51
2023/03/09 02:00:05;;;;;;;16.43;14.73;;;0.90;99.90;;;;;;5040488;28;20462;-52
2023/03/09 02:02:36;;;;;;;16.43;13.90;;;0.90;99.90;;;;;;5033000;28;20467;-52
2023/03/09 02:05:07;;;;;;;17.50;14.63;;;0.90;99.90;;;;;;5035912;28;20875;-52
2023/03/09 02:07:38;;;;;;;15.97;14.30;;;0.90;99.90;;;;;;5032362;28;20517;-52
2023/03/09 02:10:09;;;;;;;18.17;14.03;;;0.90;99.90;;;;;;5029571;28;20487;-52
2023/03/09 02:12:36;;;;;;;15.80;14.20;;;0.90;99.90;;;;;;5032879;28;20443;-52
2023/03/09 02:15:03;;;;;;;16.40;14.70;;;0.90;99.90;;;;;;5032509;28;20447;-52
2023/03/09 02:17:30;;;;;;;17.67;13.80;;;0.80;99.90;;;;;;5029713;28;20517;-52
2023/03/09 02:20:05;;;;;;;15.87;13.27;;;0.90;99.90;;;;;;5026976;28;20865;-52
2023/03/09 02:22:35;;;;;;;14.27;12.90;;;0.90;99.90;;;;;;5040926;28;20479;-52
2023/03/09 02:25:09;;;;;;;16.33;14.30;;;0.90;99.90;;;;;;5037665;28;20522;-52
2023/03/09 02:27:37;;;;;;;14.73;13.13;;;0.90;99.90;;;;;;5031188;28;20486;-53
2023/03/09 02:30:05;;;;;;;17.60;12.83;;;0.90;99.90;;;;;;5037153;28;20515;-52
2023/03/09 02:32:32;;;;;;;15.57;13.20;;;0.90;99.90;;;;;;5031929;28;21033;-52
2023/03/09 02:34:59;;;;;;;14.90;13.40;;;0.90;99.90;;;;;;5032259;28;20447;-52
2023/03/09 02:37:29;;;;;;;15.53;13.20;;;0.90;99.90;;;;;;5034933;28;20478;-53
2023/03/09 02:39:58;;;;;;;17.00;12.60;;;0.90;99.90;;;;;;5034882;28;20550;-52
2023/03/09 02:42:26;;;;;;;16.30;13.67;;;0.90;99.90;;;;;;5041166;28;20467;-52
2023/03/09 02:44:55;;;;;;;16.40;13.97;;;0.90;99.90;;;;;;5031598;28;20482;-53
2023/03/09 02:47:23;;;;;;;18.53;14.00;;;0.90;99.90;;;;;;5031290;28;20510;-52
2023/03/09 02:49:50;;;;;;;15.00;13.00;;;0.90;99.90;;;;;;5030133;28;20482;-51
2023/03/09 02:52:17;;;;;;;16.20;14.17;;;0.90;99.90;;;;;;5036255;28;20560;-52
2023/03/09 02:54:43;;;;;;;13.87;12.43;;;0.80;99.90;;;;;;5028844;28;20515;-52
2023/03/09 02:57:10;;;;;;;16.97;13.37;;;0.80;99.90;;;;;;5033028;28;21016;-53
2023/03/09 02:59:36;;;;;;;14.47;12.87;;;0.80;99.90;;;;;;5031542;28;20455;-53
2023/03/09 03:02:05;;;;;;;16.27;13.80;;;0.90;99.90;;;;;;5045092;28;20913;-52
2023/03/09 03:04:32;;;;;;;15.20;13.60;;;0.80;99.90;;;;;;5045471;28;20447;-52
2023/03/09 03:06:59;;;;;;;14.23;12.73;;;0.90;99.90;;;;;;5042709;28;20568;-52
2023/03/09 03:09:26;;;;;;;15.17;13.57;;;0.90;99.90;;;;;;5031711;28;20469;-52
2023/03/09 03:11:52;;;;;;;14.80;12.90;;;0.80;99.90;;;;;;5038775;28;20486;-52
2023/03/09 03:14:19;;;;;;;16.73;13.60;;;0.80;99.90;;;;;;5039444;28;20448;-52
2023/03/09 03:16:45;;;;;;;19.20;14.40;;;0.80;99.90;;;;;;5031561;28;20470;-52
2023/03/09 03:19:14;;;;;;;14.70;12.43;;;0.80;99.90;;;;;;5030143;28;20477;-52
2023/03/09 03:21:40;;;;;;;16.07;13.83;;;0.80;99.90;;;;;;5030764;28;20501;-52
2023/03/09 03:24:07;;;;;;;14.50;13.00;;;0.80;99.90;;;;;;5050051;28;20447;-53
2023/03/09 03:26:34;;;;;;;17.10;12.97;;;0.80;99.90;;;;;;5049588;28;20486;-52
2023/03/09 03:29:00;;;;;;;15.17;12.87;;;0.80;99.90;;;;;;5049849;22;20589;-57
2023/03/09 03:31:27;;;;;;;15.00;13.03;;;0.80;99.90;;;;;;5028815;28;20537;-54
2023/03/09 03:33:53;;;;;;;16.00;12.40;;;0.70;99.90;;;;;;5031314;28;20510;-56
2023/03/09 03:36:21;;;;;;;15.30;12.97;;;0.70;99.90;;;;;;5028214;28;20622;-56
2023/03/09 03:38:48;;;;;;;13.70;12.30;;;0.70;99.90;;;;;;5024533;28;21283;-55
2023/03/09 03:41:14;;;;;;;14.60;12.10;;;0.70;99.90;;;;;;5029230;28;21127;-54
2023/03/09 03:43:41;;;;;;;13.60;12.30;;;0.70;99.90;;;;;;5021828;28;20557;-54
2023/03/09 03:46:07;;;;;;;13.30;11.90;;;0.70;99.90;;;;;;5024638;28;20463;-54
2023/03/09 03:48:34;;;;;;;12.97;11.77;;;0.70;99.90;;;;;;5029605;28;20479;-57
2023/03/09 03:51:01;;;;;;;15.20;13.50;;;0.80;99.90;;;;;;5031865;28;20479;-55
2023/03/09 03:53:29;;;;;;;13.17;11.77;;;0.70;99.90;;;;;;5032866;28;20459;-54
2023/03/09 03:55:56;;;;;;;13.90;11.93;;;0.70;99.90;;;;;;5031440;28;20525;-54
2023/03/09 03:58:23;;;;;;;15.33;13.17;;;0.70;99.90;;;;;;5030956;28;20479;-57
2023/03/09 04:00:49;;;;;;;13.10;11.73;;;0.70;99.90;;;;;;5032967;28;20471;-55
2023/03/09 04:03:16;;;;;;;12.90;11.60;;;0.60;99.90;;;;;;5030511;28;20464;-57
2023/03/09 04:05:42;;;;;;;14.80;11.33;;;0.60;99.90;;;;;;5028759;28;20463;-57
2023/03/09 04:08:09;;;;;;;16.33;12.43;;;0.60;99.90;;;;;;5033103;28;20544;-55
2023/03/09 04:10:40;;;;;;;11.97;10.80;;;0.60;99.90;;;;;;5030816;28;20514;-56
2023/03/09 04:13:07;;;;;;;13.57;12.17;;;0.60;99.90;;;;;;5032304;28;20467;-55
2023/03/09 04:15:34;;;;;;;14.50;12.47;;;0.60;99.90;;;;;;5033349;28;20525;-54
2023/03/09 04:18:00;;;;;;;14.87;12.03;;;0.50;99.90;;;;;;5032336;28;20486;-55
2023/03/09 04:20:27;;;;;;;16.63;12.13;;;0.60;99.90;;;;;;5030622;28;20459;-55
2023/03/09 04:22:54;;;;;;;13.10;11.40;;;0.60;99.90;;;;;;5031707;28;20952;-55
2023/03/09 04:25:20;;;;;;;15.37;12.20;;;0.60;99.90;;;;;;5032394;28;20520;-54
2023/03/09 04:27:48;;;;;;;16.30;11.80;;;0.60;99.90;;;;;;5034329;28;20529;-54
2023/03/09 04:30:20;;;;;;;13.10;11.73;;;0.60;99.90;;;;;;5031991;28;20521;-55
2023/03/09 04:32:47;;;;;;;12.90;11.53;;;0.60;99.90;;;;;;5031390;28;20467;-56
2023/03/09 04:35:15;;;;;;;14.67;12.10;;;0.50;99.90;;;;;;5030016;28;20467;-55
2023/03/09 04:37:42;;;;;;;14.67;12.53;;;0.60;99.90;;;;;;5034057;28;20447;-57
2023/03/09 04:40:10;;;;;;;14.63;12.23;;;0.50;99.90;;;;;;5031975;28;20489;-55
2023/03/09 04:42:37;;;;;;;13.97;12.40;;;0.60;99.90;;;;;;5030658;28;20485;-55
2023/03/09 04:45:06;;;;;;;16.13;12.77;;;0.60;99.90;;;;;;5023143;28;20529;-56
2023/03/09 04:47:33;;;;;;;14.27;11.77;;;0.60;99.90;;;;;;5031797;28;20948;-55
2023/03/09 04:49:59;;;;;;;13.90;11.43;;;0.50;99.90;;;;;;5033209;28;20536;-55
2023/03/09 04:52:26;;;;;;;16.13;12.40;;;0.60;99.90;;;;;;5034060;28;20565;-55
2023/03/09 04:54:54;;;;;;;16.17;12.63;;;0.60;99.90;;;;;;5032726;28;20537;-55
2023/03/09 04:57:21;;;;;;;16.63;12.53;;;0.60;99.90;;;;;;5032064;28;20517;-51
2023/03/09 04:59:48;;;;;;;14.10;11.37;;;0.60;99.90;;;;;;5037174;28;20468;-51
2023/03/09 05:02:16;;;;;;;15.20;13.50;;;0.60;99.90;;;;;;5033631;28;20489;-51
2023/03/09 05:04:42;;;;;;;17.20;13.67;;;0.60;99.90;;;;;;5033702;28;20454;-51
2023/03/09 05:07:09;;;;;;;24.27;19.10;;;0.60;99.90;;;;;;5033681;28;20490;-51
2023/03/09 05:09:35;;;;;;;17.23;15.37;;;0.60;99.90;;;;;;5028606;28;20570;-51
2023/03/09 05:12:02;;;;;;;15.60;14.00;;;0.60;99.90;;;;;;5031920;28;20483;-51
2023/03/09 05:14:29;;;;;;;18.17;15.13;;;0.60;99.90;;;;;;5031389;28;20992;-51
2023/03/09 05:16:56;;;;;;;19.53;17.10;;;0.60;99.90;;;;;;5030925;28;20496;-51
2023/03/09 05:19:24;;;;;;;16.27;14.57;;;0.60;99.90;;;;;;5028268;28;20550;-52
2023/03/09 05:21:51;;;;;;;18.30;15.47;;;0.50;99.90;;;;;;5031922;28;20462;-51
2023/03/09 05:24:18;;;;;;;16.17;13.37;;;0.50;99.90;;;;;;5028359;28;20468;-52
2023/03/09 05:26:44;;;;;;;15.77;12.63;;;0.50;99.90;;;;;;5021345;28;20573;-50
2023/03/09 05:29:11;;;;;;;17.80;12.77;;;0.60;99.90;;;;;;5030959;28;20499;-51
2023/03/09 05:31:38;;;;;;;14.50;12.50;;;0.50;99.90;;;;;;5028965;28;20515;-51
2023/03/09 05:34:04;;;;;;;15.30;13.03;;;0.50;99.90;;;;;;5031205;28;20443;-51
2023/03/09 05:36:32;;;;;;;12.83;11.43;;;0.50;99.90;;;;;;5031013;28;20490;-52
2023/03/09 05:38:59;;;;;;;18.33;12.13;;;0.50;99.90;;;;;;5028118;28;20475;-51
2023/03/09 05:41:25;;;;;;;13.00;11.40;;;0.50;99.90;;;;;;5027484;28;20481;-51
2023/03/09 05:43:52;;;;;;;14.00;11.63;;;0.50;99.90;;;;;;5028888;28;20460;-51
2023/03/09 05:46:18;;;;;;;14.53;11.23;;;0.50;99.90;;;;;;5030944;28;20824;-51
2023/03/09 05:48:47;;;;;;;13.33;11.67;;;0.50;99.90;;;;;;5029717;28;20548;-50
2023/03/09 05:51:15;;;;;;;12.20;10.90;;;0.50;99.90;;;;;;5029527;28;20483;-52
2023/03/09 05:53:42;;;;;;;14.40;11.93;;;0.50;99.90;;;;;;5022006;28;20463;-51
2023/03/09 05:56:09;;;;;;;16.63;11.67;;;0.50;99.90;;;;;;5029651;28;20463;-52
2023/03/09 05:58:36;;;;;;;12.80;10.80;;;0.50;99.90;;;;;;5032492;28;20517;-52
2023/03/09 06:01:03;;;;;;;12.03;10.90;;;0.40;99.90;;;;;;5023586;28;20464;-52
2023/03/09 06:03:29;;;;;;;14.53;11.77;;;0.50;99.90;;;;;;5032574;28;20443;-50
2023/03/09 06:06:00;;;;;;;14.07;11.30;;;0.50;99.90;;;;;;5024194;28;21035;-51
2023/03/09 06:08:27;;;;;;;13.73;10.60;;;0.50;99.90;;;;;;5025466;28;21085;-51
2023/03/09 06:10:57;;;;;;;13.70;10.73;;;0.40;99.90;;;;;;5025608;28;20519;-51
2023/03/09 06:13:24;;;;;;;12.60;10.33;;;0.50;99.90;;;;;;5030456;28;20542;-51
2023/03/09 06:15:50;;;;;;;13.87;11.10;;;0.50;99.90;;;;;;5030952;28;20521;-53
2023/03/09 06:18:17;;;;;;;12.83;10.57;;;0.50;99.90;;;;;;5031002;28;20542;-51
2023/03/09 06:20:44;;;;;;;14.77;12.77;;;0.50;99.90;;;;;;5030978;28;20453;-51
2023/03/09 06:23:11;;;;;;;19.20;14.80;;;0.50;99.90;;;;;;5028276;28;20789;-50
2023/03/09 06:25:38;;;;;;;11.63;10.50;;;0.50;99.90;;;;;;5029775;28;20459;-51
2023/03/09 06:28:06;;;;;;;11.57;10.30;;;0.50;99.90;;;;;;5030789;28;20491;-52
2023/03/09 06:30:33;;;;;;;11.70;10.37;;;0.60;99.90;;;;;;5028105;28;20535;-50
2023/03/09 06:32:59;;;;;;;11.80;10.47;;;0.60;99.90;;;;;;5023016;28;20896;-51
2023/03/09 06:35:26;;;;;;;11.03;9.83;;;0.60;99.90;;;;;;5025701;28;20463;-51
2023/03/09 06:37:52;;;;;;;11.80;9.67;;;0.60;99.90;;;;;;5028820;28;20889;-51
2023/03/09 06:40:19;;;;;;;12.80;10.47;;;0.70;99.90;;;;;;5022441;28;20463;-50
2023/03/09 06:42:46;;;;;;;16.83;10.80;;;0.70;99.90;;;;;;5028830;28;20455;-52
2023/03/09 06:45:14;;;;;;;12.43;10.57;;;0.70;99.90;;;;;;5029634;28;20463;-52
2023/03/09 06:47:41;;;;;;;11.70;9.70;;;0.80;99.90;;;;;;5020235;28;20522;-52
2023/03/09 06:50:08;;;;;;;15.63;10.90;;;0.80;99.90;;;;;;5025532;28;20467;-51
2023/03/09 06:52:35;;;;;;;10.17;9.17;;;0.80;99.90;;;;;;5029336;28;20484;-51
2023/03/09 06:55:02;;;;;;;11.00;9.60;;;0.80;99.90;;;;;;5030307;28;20468;-52
2023/03/09 06:57:28;;;;;;;11.73;9.50;;;0.80;99.90;;;;;;5027291;28;20456;-51
2023/03/09 06:59:55;;;;;;;11.13;9.17;;;0.80;99.90;;;;;;5028673;28;20517;-52
2023/03/09 07:02:23;;;;;;;11.43;10.23;;;0.70;99.90;;;;;;5029563;28;20460;-52
2023/03/09 07:04:49;;;;;;;12.60;10.10;;;0.70;99.90;;;;;;5026945;28;20463;-51
2023/03/09 07:07:18;;;;;;;12.60;9.23;;;0.80;99.90;;;;;;5029514;28;20830;-52
2023/03/09 07:09:45;;;;;;;10.43;9.30;;;0.80;99.90;;;;;;5031730;28;20482;-53
2023/03/09 07:12:11;;;;;;;11.07;9.97;;;0.90;99.90;;;;;;5030554;28;20486;-52
2023/03/09 07:14:38;;;;;;;11.73;9.50;;;0.90;1.40;;;;;;5028785;28;20491;-52
2023/03/09 07:17:04;;;;;;;11.80;10.37;;;0.90;99.90;;;;;;5030079;28;20467;-51
2023/03/09 07:19:32;;;;;;;11.23;9.97;;;0.90;99.90;;;;;;5025355;28;20574;-51
2023/03/09 07:21:59;;;;;;;12.93;10.20;;;1.00;99.90;;;;;;5028886;28;20818;-52
2023/03/09 07:24:26;;;;;;;11.10;9.80;;;0.90;99.90;;;;;;5031467;28;20459;-52
2023/03/09 07:26:52;;;;;;;10.50;9.50;;;0.90;99.90;;;;;;5025317;28;20545;-51
2023/03/09 07:29:19;;;;;;;12.37;10.97;;;1.00;99.90;;;;;;5024273;28;20491;-50
2023/03/09 07:31:46;;;;;;;13.50;10.73;;;1.00;99.90;;;;;;5026115;28;20490;-51
2023/03/09 07:34:13;;;;;;;16.07;13.87;;;1.00;99.90;;;;;;5028347;28;20529;-50
2023/03/09 07:36:41;;;;;;;17.37;15.57;;;1.00;99.90;;;;;;5028823;28;20463;-50
2023/03/09 07:39:07;;;;;;;14.00;12.03;;;1.00;99.90;;;;;;5031610;28;20487;-50
2023/03/09 07:41:34;;;;;;;13.73;11.93;;;1.10;99.90;;;;;;5032118;28;20459;-51
2023/03/09 07:44:01;;;;;;;19.90;14.70;;;1.00;99.90;;;;;;5031486;28;20462;-51
2023/03/09 07:46:27;;;;;;;18.27;15.53;;;1.10;99.90;;;;;;5029609;28;20559;-50
2023/03/09 07:48:54;;;;;;;63.33;43.47;;;1.20;99.90;;;;;;5029404;28;20483;-50
2023/03/09 07:51:21;;;;;;;30.70;24.53;;;1.20;99.90;;;;;;5027168;28;20455;-51
2023/03/09 07:53:49;;;;;;;15.80;14.03;;;1.10;99.90;;;;;;5031473;28;20833;-51
2023/03/09 07:56:16;;;;;;;17.60;13.97;;;1.20;99.90;;;;;;5026739;28;20451;-51
2023/03/09 07:58:43;;;;;;;18.13;14.93;;;1.10;99.90;;;;;;5032841;28;20474;-51
2023/03/09 08:01:16;;;;;;;16.10;12.70;;;1.20;99.90;;;;;;5030166;28;20458;-51
2023/03/09 08:03:43;;;;;;;13.20;11.87;;;1.20;99.90;;;;;;5030737;28;20949;-50
2023/03/09 08:06:09;;;;;;;13.33;11.97;;;1.20;99.90;;;;;;5023505;28;20463;-51
2023/03/09 08:08:37;;;;;;;14.60;12.03;;;1.20;99.90;;;;;;5030076;28;20484;-51
2023/03/09 08:11:06;;;;;;;11.47;10.33;;;1.30;99.90;;;;;;5031508;28;20459;-52
2023/03/09 08:13:33;;;;;;;17.10;12.27;;;1.20;99.90;;;;;;5029588;28;20614;-51
2023/03/09 08:16:02;;;;;;;14.80;11.40;;;1.30;99.90;;;;;;5031912;28;20463;-51
2023/03/09 08:18:29;;;;;;;13.33;10.77;;;1.20;99.90;;;;;;5028010;28;20487;-51
2023/03/09 08:21:02;;;;;;;20.10;11.43;;;1.30;99.90;;;;;;5032290;28;20551;-52
2023/03/09 08:23:29;;;;;;;12.87;11.57;;;1.20;99.90;;;;;;5026300;28;20492;-52
2023/03/09 08:25:56;;;;;;;12.87;10.20;;;1.20;99.90;;;;;;5032045;28;20467;-54
2023/03/09 08:28:24;;;;;;;15.60;11.87;;;1.20;99.90;;;;;;5030065;28;20552;-53
2023/03/09 08:30:50;;;;;;;16.23;11.20;;;1.20;99.90;;;;;;5031673;28;20953;-52
2023/03/09 08:33:17;;;;;;;14.80;11.17;;;1.10;99.90;;;;;;5029875;28;20561;-52
2023/03/09 08:35:44;;;;;;;12.97;11.20;;;1.10;99.90;;;;;;5029172;28;20495;-52
2023/03/09 08:38:10;;;;;;;33.47;27.40;;;1.20;99.90;;;;;;5026853;28;20582;-54
2023/03/09 08:40:38;;;;;;;12.57;11.03;;;1.20;99.90;;;;;;5026164;28;20463;-54
2023/03/09 08:43:05;;;;;;;13.07;11.67;;;1.20;99.90;;;;;;5030281;28;20465;-52
2023/03/09 08:45:32;;;;;;;15.90;11.50;;;1.30;99.90;;;;;;5024686;28;20471;-52
2023/03/09 08:47:59;;;;;;;14.63;11.37;;;1.30;99.90;;;;;;5026464;28;20484;-53
2023/03/09 08:50:26;;;;;;;12.20;10.87;;;1.30;99.90;;;;;;5025212;28;20490;-52
2023/03/09 08:52:52;;;;;;;14.87;11.20;;;1.30;99.90;;;;;;5029639;28;20482;-52
2023/03/09 08:55:19;;;;;;;11.57;10.37;;;1.30;99.90;;;;;;5028801;28;21027;-52
2023/03/09 08:57:46;;;;;;;12.63;11.23;;;1.20;99.90;;;;;;5027400;28;20512;-53
2023/03/09 09:00:14;;;;;;;13.27;11.30;;;1.20;99.90;;;;;;5031221;28;20513;-52
2023/03/09 09:02:42;;;;;;;14.60;12.50;;;1.20;99.90;;;;;;5032462;28;20801;-54
2023/03/09 09:05:09;;;;;;;15.67;12.13;;;1.30;99.90;;;;;;5034442;28;20444;-52
2023/03/09 09:07:36;;;;;;;16.27;12.27;;;1.30;99.90;;;;;;5029365;28;20456;-53
2023/03/09 09:10:03;;;;;;;14.33;12.70;;;1.20;99.90;;;;;;5027967;28;20485;-51
2023/03/09 09:12:32;;;;;;;11.63;10.50;;;1.30;99.90;;;;;;5028316;28;20922;-52
2023/03/09 09:14:59;;;;;;;13.30;11.47;;;1.20;99.90;;;;;;5026803;28;20465;-51
2023/03/09 09:17:25;;;;;;;14.13;10.87;;;1.30;99.90;;;;;;5030717;28;20456;-52
2023/03/09 09:19:53;;;;;;;12.70;11.37;;;1.30;99.90;;;;;;5029229;28;20851;-54
2023/03/09 09:22:20;;;;;;;17.60;12.77;;;1.40;99.90;;;;;;5026505;28;20451;-51
2023/03/09 09:24:47;;;;;;;16.40;12.80;;;1.30;99.90;;;;;;5030082;28;20471;-53
2023/03/09 09:27:13;;;;;;;11.93;10.70;;;1.30;99.90;;;;;;5029557;28;20491;-51
2023/03/09 09:29:40;;;;;;;12.93;11.40;;;1.20;99.90;;;;;;5044477;23;20495;-57
2023/03/09 09:32:08;;;;;;;14.73;13.00;;;1.30;99.90;;;;;;5030119;28;20479;-57
2023/03/09 09:34:35;;;;;;;13.20;10.87;;;1.30;99.90;;;;;;5030214;28;20517;-57
2023/03/09 09:37:05;;;;;;;11.60;10.00;;;1.20;99.90;;;;;;5030103;28;20525;-57
2023/03/09 09:39:33;;;;;;;18.50;15.10;;;1.30;99.90;;;;;;5026935;28;20575;-56
2023/03/09 09:42:02;;;;;;;13.60;10.43;;;1.40;99.90;;;;;;5027660;28;20957;-57
2023/03/09 09:44:33;;;;;;;14.30;11.80;;;1.40;99.90;;;;;;5029220;28;20809;-56
2023/03/09 09:47:03;;;;;;;12.27;11.03;;;1.50;99.90;;;;;;5027754;28;20984;-57
2023/03/09 09:49:32;;;;;;;15.33;9.77;;;1.50;99.90;;;;;;5026258;28;20482;-57
2023/03/09 09:52:20;;;;;;;11.83;9.30;;;1.50;99.90;;;;;;5032206;28;20513;-57
2023/03/09 09:54:55;;;;;;;11.67;10.30;;;1.50;99.90;;;;;;5030036;28;20513;-57
2023/03/09 09:57:24;;;;;;;13.57;10.50;;;1.50;99.90;;;;;;5029618;28;20520;-57
2023/03/09 09:59:58;;;;;;;12.80;11.20;;;1.50;99.90;;;;;;5028241;28;20483;-57
2023/03/09 10:02:41;;;;;;;11.87;9.97;;;1.60;99.90;;;;;;5034892;28;20504;-57
2023/03/09 10:05:17;;;;;;;11.00;9.37;;;1.60;99.90;;;;;;5029093;28;20462;-58
2023/03/09 10:07:46;;;;;;;10.40;9.40;;;1.60;99.90;;;;;;5029733;28;20459;-57
2023/03/09 10:10:18;;;;;;;15.50;10.80;;;1.60;99.90;;;;;;5028910;28;20519;-56
2023/03/09 10:12:46;;;;;;;12.50;9.90;;;1.50;99.90;;;;;;5028425;28;20486;-58
2023/03/09 10:15:17;;;;;;;13.07;10.43;;;1.60;99.90;;;;;;5028885;28;20882;-57
2023/03/09 10:17:47;;;;;;;10.90;9.80;;;1.50;99.90;;;;;;5027481;28;20516;-57
2023/03/09 10:20:18;;;;;;;10.30;9.23;;;1.60;99.90;;;;;;5029932;28;20513;-57
2023/03/09 10:22:50;;;;;;;11.90;10.00;;;1.60;99.90;;;;;;5030493;28;20491;-56
2023/03/09 10:25:20;;;;;;;11.47;10.23;;;1.60;99.90;;;;;;5024735;28;20456;-55
2023/03/09 10:27:55;;;;;;;15.93;10.33;;;1.60;99.90;;;;;;5028544;28;20467;-57
2023/03/09 10:30:30;;;;;;;12.50;10.90;;;1.60;99.90;;;;;;5024029;28;20577;-57
2023/03/09 10:33:04;;;;;;;12.83;9.97;;;1.60;99.90;;;;;;5021085;28;20514;-57
2023/03/09 10:35:36;;;;;;;12.17;10.77;;;1.50;99.90;;;;;;5023783;28;21047;-57
2023/03/09 10:38:04;;;;;;;15.03;10.40;;;1.40;99.90;;;;;;5025146;28;20465;-57
2023/03/09 10:40:34;;;;;;;10.00;9.00;;;1.40;99.90;;;;;;5025273;28;20541;-56
2023/03/09 10:43:01;;;;;;;12.47;10.37;;;1.50;99.90;;;;;;5015061;28;20488;-57
2023/03/09 10:45:29;;;;;;;14.60;11.10;;;1.50;99.90;;;;;;5016737;28;20479;-56
2023/03/09 10:47:59;;;;;;;11.30;9.87;;;1.50;99.90;;;;;;5023464;28;20490;-57
2023/03/09 10:50:29;;;;;;;11.23;10.00;;;1.50;99.90;;;;;;5021849;28;20579;-55
2023/03/09 10:52:56;;;;;;;13.10;10.20;;;1.50;99.90;;;;;;5023213;28;20511;-57
2023/03/09 10:55:41;;;;;;;14.10;11.60;;;1.50;99.90;;;;;;5026694;28;20455;-57
2023/03/09 10:58:16;;;;;;;12.80;10.17;;;1.40;99.90;;;;;;5024629;28;20953;-56
2023/03/09 11:00:58;;;;;;;14.37;11.33;;;1.50;99.90;;;;;;5024917;28;20454;-56
2023/03/09 11:03:26;;;;;;;11.90;10.50;;;1.50;99.90;;;;;;5022225;28;20545;-57
2023/03/09 11:05:53;;;;;;;11.47;10.37;;;1.40;99.90;;;;;;5025993;28;20470;-57
2023/03/09 11:08:25;;;;;;;14.27;11.07;;;1.50;99.90;;;;;;5029554;28;20451;-53
2023/03/09 11:11:04;;;;;;;13.43;10.00;;;1.50;99.90;;;;;;5030400;28;20455;-54
2023/03/09 11:13:30;;;;;;;15.13;11.00;;;1.50;99.90;;;;;;5014238;28;20572;-53
2023/03/09 11:16:14;;;;;;;10.73;9.73;;;1.40;99.90;;;;;;5017194;28;20468;-53
2023/03/09 11:18:42;;;;;;;11.80;9.63;;;1.50;99.90;;;;;;5029978;28;20459;-52
2023/03/09 11:21:09;;;;;;;12.53;11.07;;;1.50;99.90;;;;;;5012175;28;20547;-52
2023/03/09 11:23:39;;;;;;;11.63;10.23;;;1.50;99.90;;;;;;5022863;28;20455;-52
2023/03/09 11:26:17;;;;;;;11.80;10.60;;;1.60;99.90;;;;;;5012812;28;20460;-53
2023/03/09 11:28:55;;;;;;;11.70;9.97;;;1.60;99.90;;;;;;5017654;28;20486;-53
2023/03/09 11:31:24;;;;;;;14.43;10.67;;;1.60;99.90;;;;;;5016877;28;20459;-52
2023/03/09 11:33:57;;;;;;;10.37;9.30;;;1.60;99.90;;;;;;5015180;28;20539;-52
2023/03/09 11:36:27;;;;;;;13.30;10.57;;;1.60;99.90;;;;;;5021907;28;20462;-52
2023/03/09 11:38:55;;;;;;;16.03;12.23;;;1.40;99.90;;;;;;5014543;28;20479;-52
2023/03/09 11:41:28;;;;;;;12.37;11.10;;;1.50;99.90;;;;;;5016173;28;20875;-53
2023/03/09 11:44:00;;;;;;;15.73;11.63;;;1.40;99.90;;;;;;5016313;28;20576;-53
2023/03/09 11:46:27;;;;;;;11.50;10.33;;;1.50;99.90;;;;;;5016150;28;20530;-53
2023/03/09 11:48:57;;;;;;;11.43;10.30;;;1.40;99.90;;;;;;5008824;28;20475;-53
2023/03/09 11:51:28;;;;;;;12.20;10.70;;;1.50;99.90;;;;;;5014797;28;20467;-53
2023/03/09 11:54:03;;;;;;;18.13;10.23;;;1.50;99.90;;;;;;5011566;28;20482;-53
2023/03/09 11:56:37;;;;;;;13.50;10.47;;;1.50;99.90;;;;;;5014256;28;20455;-53
2023/03/09 11:59:11;;;;;;;14.70;10.50;;;1.50;99.90;;;;;;5017515;28;20482;-53
2023/03/09 12:01:45;;;;;;;11.70;10.50;;;1.50;99.90;;;;;;5015512;28;20971;-53
2023/03/09 12:04:15;;;;;;;23.20;10.63;;;1.50;99.90;;;;;;5021338;28;20542;-52
2023/03/09 12:06:50;;;;;;;12.93;11.53;;;1.60;99.90;;;;;;5017289;28;20463;-53
2023/03/09 12:09:25;;;;;;;12.63;11.30;;;1.60;99.90;;;;;;5018464;28;20491;-51
2023/03/09 12:11:58;;;;;;;12.60;11.40;;;1.50;99.90;;;;;;5024866;28;20469;-53
2023/03/09 12:14:31;;;;;;;14.07;12.57;;;1.60;99.90;;;;;;5020726;28;20479;-52
2023/03/09 12:17:04;;;;;;;16.17;12.50;;;1.60;99.90;;;;;;5021403;28;20487;-52
2023/03/09 12:19:33;;;;;;;12.87;11.57;;;1.50;99.90;;;;;;5020659;28;20479;-52
2023/03/09 12:22:06;;;;;;;17.80;15.10;;;1.60;99.90;;;;;;5028940;28;20509;-52
2023/03/09 12:24:37;;;;;;;13.70;11.50;;;1.60;99.90;;;;;;5032058;28;20481;-52
2023/03/09 12:27:14;;;;;;;13.40;12.00;;;1.70;99.90;;;;;;5025645;28;21049;-53
2023/03/09 12:29:46;;;;;;;18.43;11.90;;;1.60;99.90;;;;;;5029142;28;20478;-53
2023/03/09 12:32:39;;;;;;;13.53;12.23;;;1.70;99.90;;;;;;5028020;28;20467;-53
2023/03/09 12:35:13;;;;;;;13.33;11.97;;;1.70;99.90;;;;;;5026698;28;20470;-52
2023/03/09 12:38:05;;;;;;;14.80;11.60;;;1.70;99.90;;;;;;5028393;28;20459;-51
2023/03/09 12:40:37;;;;;;;13.80;10.60;;;1.70;99.90;;;;;;5031780;28;20483;-50
2023/03/09 12:43:52;;;;;;;13.00;11.30;;;1.60;99.90;;;;;;5028311;28;20460;-50
2023/03/09 12:46:50;;;;;;;12.17;11.00;;;1.60;99.90;;;;;;5023896;28;20590;-50